sensor_id;sensor_type;location;lat;lon;timestamp;P1;durP1;ratioP1;P2;durP2;ratioP2
49948;SDS011;35840;45.982;8.890;2022-12-18T00:01:28;13.57;;;8.63;;
49948;SDS011;35840;45.982;8.890;2022-12-18T00:03:57;15.30;;;8.57;;
49948;SDS011;35840;45.982;8.890;2022-12-18T00:06:25;14.02;;;7.93;;
49948;SDS011;35840;45.982;8.890;2022-12-18T00:08:54;13.95;;;8.57;;
49948;SDS011;35840;45.982;8.890;2022-12-18T00:11:23;11.55;;;8.25;;
49948;SDS011;35840;45.982;8.890;2022-12-18T00:13:53;14.13;;;9.15;;
49948;SDS011;35840;45.982;8.890;2022-12-18T00:16:21;12.40;;;8.05;;
49948;SDS011;35840;45.982;8.890;2022-12-18T00:18:49;13.32;;;8.88;;
49948;SDS011;35840;45.982;8.890;2022-12-18T00:21:18;14.50;;;9.20;;
49948;SDS011;35840;45.982;8.890;2022-12-18T00:23:46;15.32;;;8.73;;
49948;SDS011;35840;45.982;8.890;2022-12-18T00:26:15;12.43;;;7.97;;
49948;SDS011;35840;45.982;8.890;2022-12-18T00:28:48;11.40;;;7.78;;
49948;SDS011;35840;45.982;8.890;2022-12-18T00:31:16;14.50;;;7.80;;
49948;SDS011;35840;45.982;8.890;2022-12-18T00:33:45;12.20;;;7.50;;
49948;SDS011;35840;45.982;8.890;2022-12-18T00:36:19;11.90;;;7.72;;
49948;SDS011;35840;45.982;8.890;2022-12-18T00:38:48;11.70;;;7.80;;
49948;SDS011;35840;45.982;8.890;2022-12-18T00:41:17;9.60;;;6.93;;
49948;SDS011;35840;45.982;8.890;2022-12-18T00:44:05;15.35;;;8.23;;
49948;SDS011;35840;45.982;8.890;2022-12-18T00:46:32;10.10;;;6.63;;
49948;SDS011;35840;45.982;8.890;2022-12-18T00:48:59;10.13;;;7.45;;
49948;SDS011;35840;45.982;8.890;2022-12-18T00:51:26;10.50;;;6.80;;
49948;SDS011;35840;45.982;8.890;2022-12-18T00:53:53;15.95;;;8.93;;
49948;SDS011;35840;45.982;8.890;2022-12-18T00:56:20;19.38;;;10.43;;
49948;SDS011;35840;45.982;8.890;2022-12-18T00:58:47;13.57;;;7.95;;
49948;SDS011;35840;45.982;8.890;2022-12-18T01:01:13;11.25;;;6.53;;
49948;SDS011;35840;45.982;8.890;2022-12-18T01:03:40;10.77;;;6.53;;
49948;SDS011;35840;45.982;8.890;2022-12-18T01:06:09;11.93;;;7.32;;
49948;SDS011;35840;45.982;8.890;2022-12-18T01:08:38;11.77;;;5.78;;
49948;SDS011;35840;45.982;8.890;2022-12-18T01:11:12;14.02;;;7.22;;
49948;SDS011;35840;45.982;8.890;2022-12-18T01:13:41;9.23;;;5.53;;
49948;SDS011;35840;45.982;8.890;2022-12-18T01:16:11;7.47;;;4.97;;
49948;SDS011;35840;45.982;8.890;2022-12-18T01:18:42;7.57;;;5.82;;
49948;SDS011;35840;45.982;8.890;2022-12-18T01:21:10;8.70;;;5.85;;
49948;SDS011;35840;45.982;8.890;2022-12-18T01:23:38;7.65;;;5.43;;
49948;SDS011;35840;45.982;8.890;2022-12-18T01:26:06;10.38;;;5.35;;
49948;SDS011;35840;45.982;8.890;2022-12-18T01:28:35;7.03;;;4.78;;
49948;SDS011;35840;45.982;8.890;2022-12-18T01:33:37;10.00;;;6.05;;
49948;SDS011;35840;45.982;8.890;2022-12-18T01:36:05;7.13;;;5.28;;
49948;SDS011;35840;45.982;8.890;2022-12-18T01:38:32;8.65;;;6.53;;
49948;SDS011;35840;45.982;8.890;2022-12-18T01:40:59;7.97;;;4.97;;
49948;SDS011;35840;45.982;8.890;2022-12-18T01:48:51;7.18;;;5.10;;
49948;SDS011;35840;45.982;8.890;2022-12-18T01:51:23;11.57;;;5.50;;
49948;SDS011;35840;45.982;8.890;2022-12-18T01:53:50;11.23;;;5.72;;
49948;SDS011;35840;45.982;8.890;2022-12-18T01:56:17;10.25;;;5.82;;
49948;SDS011;35840;45.982;8.890;2022-12-18T01:58:57;10.13;;;6.20;;
49948;SDS011;35840;45.982;8.890;2022-12-18T02:01:30;9.23;;;6.63;;
49948;SDS011;35840;45.982;8.890;2022-12-18T02:04:20;8.57;;;5.97;;
49948;SDS011;35840;45.982;8.890;2022-12-18T02:06:53;10.35;;;6.30;;
49948;SDS011;35840;45.982;8.890;2022-12-18T02:09:33;8.15;;;5.70;;
49948;SDS011;35840;45.982;8.890;2022-12-18T02:12:25;8.52;;;6.68;;
49948;SDS011;35840;45.982;8.890;2022-12-18T02:15:12;9.18;;;6.32;;
49948;SDS011;35840;45.982;8.890;2022-12-18T02:18:05;8.95;;;6.38;;
49948;SDS011;35840;45.982;8.890;2022-12-18T02:20:43;10.45;;;5.88;;
49948;SDS011;35840;45.982;8.890;2022-12-18T02:26:16;9.85;;;6.47;;
49948;SDS011;35840;45.982;8.890;2022-12-18T02:28:49;9.77;;;6.07;;
49948;SDS011;35840;45.982;8.890;2022-12-18T02:31:24;9.05;;;5.88;;
49948;SDS011;35840;45.982;8.890;2022-12-18T02:33:55;9.55;;;5.72;;
49948;SDS011;35840;45.982;8.890;2022-12-18T02:36:25;9.95;;;5.95;;
49948;SDS011;35840;45.982;8.890;2022-12-18T02:38:55;8.35;;;6.07;;
49948;SDS011;35840;45.982;8.890;2022-12-18T02:41:25;10.38;;;5.85;;
49948;SDS011;35840;45.982;8.890;2022-12-18T02:43:55;10.57;;;5.65;;
49948;SDS011;35840;45.982;8.890;2022-12-18T02:46:26;9.10;;;5.55;;
49948;SDS011;35840;45.982;8.890;2022-12-18T02:49:06;8.77;;;6.30;;
49948;SDS011;35840;45.982;8.890;2022-12-18T02:52:02;8.77;;;6.05;;
49948;SDS011;35840;45.982;8.890;2022-12-18T03:00:15;8.48;;;5.18;;
49948;SDS011;35840;45.982;8.890;2022-12-18T03:02:50;6.38;;;4.65;;
49948;SDS011;35840;45.982;8.890;2022-12-18T03:05:38;7.80;;;4.47;;
49948;SDS011;35840;45.982;8.890;2022-12-18T03:08:13;5.70;;;4.07;;
49948;SDS011;35840;45.982;8.890;2022-12-18T03:10:54;7.38;;;4.85;;
49948;SDS011;35840;45.982;8.890;2022-12-18T03:13:34;7.75;;;4.53;;
49948;SDS011;35840;45.982;8.890;2022-12-18T03:16:06;6.47;;;4.65;;
49948;SDS011;35840;45.982;8.890;2022-12-18T03:18:59;6.97;;;5.13;;
49948;SDS011;35840;45.982;8.890;2022-12-18T03:21:37;7.13;;;3.85;;
49948;SDS011;35840;45.982;8.890;2022-12-18T03:24:08;6.05;;;4.22;;
49948;SDS011;35840;45.982;8.890;2022-12-18T03:26:37;7.68;;;5.13;;
49948;SDS011;35840;45.982;8.890;2022-12-18T03:29:09;6.55;;;4.68;;
49948;SDS011;35840;45.982;8.890;2022-12-18T03:31:42;7.22;;;4.63;;
49948;SDS011;35840;45.982;8.890;2022-12-18T03:34:15;6.90;;;5.05;;
49948;SDS011;35840;45.982;8.890;2022-12-18T03:36:48;7.03;;;4.72;;
49948;SDS011;35840;45.982;8.890;2022-12-18T03:39:15;8.50;;;4.90;;
49948;SDS011;35840;45.982;8.890;2022-12-18T03:44:43;6.30;;;4.13;;
49948;SDS011;35840;45.982;8.890;2022-12-18T03:50:19;7.75;;;4.50;;
49948;SDS011;35840;45.982;8.890;2022-12-18T03:52:53;6.30;;;4.28;;
49948;SDS011;35840;45.982;8.890;2022-12-18T03:55:44;8.23;;;4.63;;
49948;SDS011;35840;45.982;8.890;2022-12-18T03:58:13;6.60;;;4.53;;
49948;SDS011;35840;45.982;8.890;2022-12-18T04:00:56;6.82;;;4.13;;
49948;SDS011;35840;45.982;8.890;2022-12-18T04:03:25;6.72;;;4.57;;
49948;SDS011;35840;45.982;8.890;2022-12-18T04:05:56;5.28;;;3.90;;
49948;SDS011;35840;45.982;8.890;2022-12-18T04:08:26;4.78;;;3.80;;
49948;SDS011;35840;45.982;8.890;2022-12-18T04:11:04;5.10;;;3.83;;
49948;SDS011;35840;45.982;8.890;2022-12-18T04:13:32;5.47;;;4.22;;
49948;SDS011;35840;45.982;8.890;2022-12-18T04:16:06;5.10;;;4.47;;
49948;SDS011;35840;45.982;8.890;2022-12-18T04:18:33;6.28;;;4.47;;
49948;SDS011;35840;45.982;8.890;2022-12-18T04:21:01;4.85;;;3.90;;
49948;SDS011;35840;45.982;8.890;2022-12-18T04:23:28;4.40;;;3.58;;
49948;SDS011;35840;45.982;8.890;2022-12-18T04:25:57;4.90;;;3.40;;
49948;SDS011;35840;45.982;8.890;2022-12-18T04:28:42;5.18;;;4.03;;
49948;SDS011;35840;45.982;8.890;2022-12-18T04:31:10;5.30;;;4.18;;
49948;SDS011;35840;45.982;8.890;2022-12-18T04:33:38;5.65;;;4.25;;
49948;SDS011;35840;45.982;8.890;2022-12-18T04:36:06;4.60;;;3.50;;
49948;SDS011;35840;45.982;8.890;2022-12-18T04:38:33;5.63;;;4.28;;
49948;SDS011;35840;45.982;8.890;2022-12-18T04:41:07;5.50;;;3.67;;
49948;SDS011;35840;45.982;8.890;2022-12-18T04:43:35;5.85;;;4.13;;
49948;SDS011;35840;45.982;8.890;2022-12-18T04:46:03;5.80;;;3.33;;
49948;SDS011;35840;45.982;8.890;2022-12-18T04:48:32;8.05;;;3.97;;
49948;SDS011;35840;45.982;8.890;2022-12-18T04:51:01;4.35;;;3.00;;
49948;SDS011;35840;45.982;8.890;2022-12-18T04:53:28;5.20;;;3.78;;
49948;SDS011;35840;45.982;8.890;2022-12-18T04:58:31;5.22;;;3.72;;
49948;SDS011;35840;45.982;8.890;2022-12-18T05:00:58;5.00;;;2.75;;
49948;SDS011;35840;45.982;8.890;2022-12-18T05:03:25;4.68;;;3.10;;
49948;SDS011;35840;45.982;8.890;2022-12-18T05:05:51;4.60;;;3.45;;
49948;SDS011;35840;45.982;8.890;2022-12-18T05:08:18;5.80;;;2.83;;
49948;SDS011;35840;45.982;8.890;2022-12-18T05:10:45;6.53;;;3.53;;
49948;SDS011;35840;45.982;8.890;2022-12-18T05:13:12;6.55;;;3.17;;
49948;SDS011;35840;45.982;8.890;2022-12-18T05:15:38;4.47;;;3.25;;
49948;SDS011;35840;45.982;8.890;2022-12-18T05:18:05;5.25;;;3.70;;
49948;SDS011;35840;45.982;8.890;2022-12-18T05:20:32;3.90;;;2.83;;
49948;SDS011;35840;45.982;8.890;2022-12-18T05:22:58;4.43;;;3.03;;
49948;SDS011;35840;45.982;8.890;2022-12-18T05:25:26;8.30;;;3.13;;
49948;SDS011;35840;45.982;8.890;2022-12-18T05:27:53;3.83;;;3.05;;
49948;SDS011;35840;45.982;8.890;2022-12-18T05:30:20;5.30;;;2.90;;
49948;SDS011;35840;45.982;8.890;2022-12-18T05:32:47;4.30;;;3.08;;
49948;SDS011;35840;45.982;8.890;2022-12-18T05:35:13;4.15;;;2.78;;
49948;SDS011;35840;45.982;8.890;2022-12-18T05:37:40;3.55;;;2.55;;
49948;SDS011;35840;45.982;8.890;2022-12-18T05:40:09;3.67;;;2.72;;
49948;SDS011;35840;45.982;8.890;2022-12-18T05:42:36;4.82;;;2.88;;
49948;SDS011;35840;45.982;8.890;2022-12-18T05:45:03;4.15;;;2.72;;
49948;SDS011;35840;45.982;8.890;2022-12-18T05:47:31;4.00;;;2.58;;
49948;SDS011;35840;45.982;8.890;2022-12-18T05:49:57;4.00;;;2.80;;
49948;SDS011;35840;45.982;8.890;2022-12-18T05:52:24;7.15;;;3.10;;
49948;SDS011;35840;45.982;8.890;2022-12-18T05:54:51;4.45;;;2.80;;
49948;SDS011;35840;45.982;8.890;2022-12-18T05:57:17;6.55;;;2.65;;
49948;SDS011;35840;45.982;8.890;2022-12-18T05:59:44;4.78;;;3.05;;
49948;SDS011;35840;45.982;8.890;2022-12-18T06:02:11;3.53;;;2.33;;
49948;SDS011;35840;45.982;8.890;2022-12-18T06:04:38;5.05;;;3.03;;
49948;SDS011;35840;45.982;8.890;2022-12-18T06:07:04;5.75;;;3.08;;
49948;SDS011;35840;45.982;8.890;2022-12-18T06:09:31;3.88;;;2.78;;
49948;SDS011;35840;45.982;8.890;2022-12-18T06:11:58;3.97;;;2.78;;
49948;SDS011;35840;45.982;8.890;2022-12-18T06:14:25;3.85;;;2.53;;
49948;SDS011;35840;45.982;8.890;2022-12-18T06:16:52;4.18;;;3.13;;
49948;SDS011;35840;45.982;8.890;2022-12-18T06:19:18;2.70;;;2.25;;
49948;SDS011;35840;45.982;8.890;2022-12-18T06:21:46;6.90;;;2.40;;
49948;SDS011;35840;45.982;8.890;2022-12-18T06:24:12;5.78;;;2.85;;
49948;SDS011;35840;45.982;8.890;2022-12-18T06:26:39;5.05;;;2.90;;
49948;SDS011;35840;45.982;8.890;2022-12-18T06:29:06;3.63;;;2.65;;
49948;SDS011;35840;45.982;8.890;2022-12-18T06:31:33;4.43;;;3.25;;
49948;SDS011;35840;45.982;8.890;2022-12-18T06:34:01;4.57;;;2.55;;
49948;SDS011;35840;45.982;8.890;2022-12-18T06:36:29;4.50;;;2.92;;
49948;SDS011;35840;45.982;8.890;2022-12-18T06:38:55;4.10;;;3.42;;
49948;SDS011;35840;45.982;8.890;2022-12-18T06:41:23;7.57;;;3.53;;
49948;SDS011;35840;45.982;8.890;2022-12-18T06:43:50;4.07;;;3.00;;
49948;SDS011;35840;45.982;8.890;2022-12-18T06:46:20;2.85;;;2.50;;
49948;SDS011;35840;45.982;8.890;2022-12-18T06:48:48;4.88;;;3.05;;
49948;SDS011;35840;45.982;8.890;2022-12-18T06:51:17;3.47;;;3.17;;
49948;SDS011;35840;45.982;8.890;2022-12-18T06:53:45;6.45;;;3.00;;
49948;SDS011;35840;45.982;8.890;2022-12-18T06:56:11;5.10;;;2.88;;
49948;SDS011;35840;45.982;8.890;2022-12-18T06:58:38;4.72;;;3.20;;
49948;SDS011;35840;45.982;8.890;2022-12-18T07:01:06;6.22;;;3.10;;
49948;SDS011;35840;45.982;8.890;2022-12-18T07:03:35;4.55;;;2.95;;
49948;SDS011;35840;45.982;8.890;2022-12-18T07:06:04;6.13;;;3.42;;
49948;SDS011;35840;45.982;8.890;2022-12-18T07:08:31;7.90;;;3.25;;
49948;SDS011;35840;45.982;8.890;2022-12-18T07:10:58;5.05;;;2.70;;
49948;SDS011;35840;45.982;8.890;2022-12-18T07:13:25;4.55;;;2.90;;
49948;SDS011;35840;45.982;8.890;2022-12-18T07:15:52;6.03;;;3.53;;
49948;SDS011;35840;45.982;8.890;2022-12-18T07:18:19;4.90;;;3.25;;
49948;SDS011;35840;45.982;8.890;2022-12-18T07:20:46;7.53;;;3.50;;
49948;SDS011;35840;45.982;8.890;2022-12-18T07:23:14;4.75;;;3.05;;
49948;SDS011;35840;45.982;8.890;2022-12-18T07:25:40;6.10;;;3.25;;
49948;SDS011;35840;45.982;8.890;2022-12-18T07:28:07;4.43;;;3.13;;
49948;SDS011;35840;45.982;8.890;2022-12-18T07:30:42;5.40;;;3.40;;
49948;SDS011;35840;45.982;8.890;2022-12-18T07:33:09;5.43;;;3.53;;
49948;SDS011;35840;45.982;8.890;2022-12-18T07:35:39;4.22;;;3.20;;
49948;SDS011;35840;45.982;8.890;2022-12-18T07:38:05;3.28;;;2.92;;
49948;SDS011;35840;45.982;8.890;2022-12-18T07:40:32;4.82;;;3.40;;
49948;SDS011;35840;45.982;8.890;2022-12-18T07:42:59;5.25;;;2.95;;
49948;SDS011;35840;45.982;8.890;2022-12-18T07:45:25;5.07;;;3.25;;
49948;SDS011;35840;45.982;8.890;2022-12-18T07:47:55;4.20;;;3.13;;
49948;SDS011;35840;45.982;8.890;2022-12-18T07:50:22;3.97;;;2.90;;
49948;SDS011;35840;45.982;8.890;2022-12-18T07:52:50;5.03;;;2.75;;
49948;SDS011;35840;45.982;8.890;2022-12-18T07:55:16;3.75;;;2.80;;
49948;SDS011;35840;45.982;8.890;2022-12-18T07:57:43;5.72;;;2.88;;
49948;SDS011;35840;45.982;8.890;2022-12-18T08:00:23;3.80;;;2.53;;
49948;SDS011;35840;45.982;8.890;2022-12-18T08:02:49;2.83;;;2.30;;
49948;SDS011;35840;45.982;8.890;2022-12-18T08:05:16;3.30;;;2.33;;
49948;SDS011;35840;45.982;8.890;2022-12-18T08:07:43;3.60;;;2.47;;
49948;SDS011;35840;45.982;8.890;2022-12-18T08:10:10;4.10;;;2.70;;
49948;SDS011;35840;45.982;8.890;2022-12-18T08:12:37;5.10;;;3.38;;
49948;SDS011;35840;45.982;8.890;2022-12-18T08:15:03;4.93;;;2.90;;
49948;SDS011;35840;45.982;8.890;2022-12-18T08:17:31;5.07;;;2.63;;
49948;SDS011;35840;45.982;8.890;2022-12-18T08:19:58;2.92;;;2.45;;
49948;SDS011;35840;45.982;8.890;2022-12-18T08:22:25;4.03;;;2.90;;
49948;SDS011;35840;45.982;8.890;2022-12-18T08:24:52;4.10;;;2.42;;
49948;SDS011;35840;45.982;8.890;2022-12-18T08:27:18;2.53;;;2.30;;
49948;SDS011;35840;45.982;8.890;2022-12-18T08:29:55;3.53;;;2.40;;
49948;SDS011;35840;45.982;8.890;2022-12-18T08:32:23;4.55;;;2.90;;
49948;SDS011;35840;45.982;8.890;2022-12-18T08:34:51;2.53;;;1.90;;
49948;SDS011;35840;45.982;8.890;2022-12-18T08:37:17;5.05;;;2.65;;
49948;SDS011;35840;45.982;8.890;2022-12-18T08:39:44;3.95;;;2.30;;
49948;SDS011;35840;45.982;8.890;2022-12-18T08:42:11;3.10;;;2.53;;
49948;SDS011;35840;45.982;8.890;2022-12-18T08:44:56;3.78;;;2.83;;
49948;SDS011;35840;45.982;8.890;2022-12-18T08:47:23;5.43;;;2.58;;
49948;SDS011;35840;45.982;8.890;2022-12-18T08:49:49;2.95;;;2.50;;
49948;SDS011;35840;45.982;8.890;2022-12-18T08:52:16;4.53;;;2.65;;
49948;SDS011;35840;45.982;8.890;2022-12-18T08:54:43;4.10;;;2.67;;
49948;SDS011;35840;45.982;8.890;2022-12-18T08:57:09;4.63;;;3.25;;
49948;SDS011;35840;45.982;8.890;2022-12-18T08:59:36;3.33;;;2.30;;
49948;SDS011;35840;45.982;8.890;2022-12-18T09:02:03;3.75;;;2.80;;
49948;SDS011;35840;45.982;8.890;2022-12-18T09:04:30;3.92;;;3.00;;
49948;SDS011;35840;45.982;8.890;2022-12-18T09:06:56;4.28;;;3.03;;
49948;SDS011;35840;45.982;8.890;2022-12-18T09:09:23;3.70;;;2.97;;
49948;SDS011;35840;45.982;8.890;2022-12-18T09:11:49;4.95;;;3.22;;
49948;SDS011;35840;45.982;8.890;2022-12-18T09:14:16;3.67;;;3.10;;
49948;SDS011;35840;45.982;8.890;2022-12-18T09:16:43;4.75;;;2.78;;
49948;SDS011;35840;45.982;8.890;2022-12-18T09:19:10;5.72;;;3.10;;
49948;SDS011;35840;45.982;8.890;2022-12-18T09:21:37;4.30;;;2.65;;
49948;SDS011;35840;45.982;8.890;2022-12-18T09:24:11;4.47;;;2.90;;
49948;SDS011;35840;45.982;8.890;2022-12-18T09:26:40;3.88;;;2.63;;
49948;SDS011;35840;45.982;8.890;2022-12-18T09:29:08;4.13;;;2.90;;
49948;SDS011;35840;45.982;8.890;2022-12-18T09:31:35;4.10;;;2.63;;
49948;SDS011;35840;45.982;8.890;2022-12-18T09:34:06;3.20;;;2.90;;
49948;SDS011;35840;45.982;8.890;2022-12-18T09:36:32;5.43;;;3.15;;
49948;SDS011;35840;45.982;8.890;2022-12-18T09:38:59;4.68;;;3.00;;
49948;SDS011;35840;45.982;8.890;2022-12-18T09:44:23;4.47;;;3.17;;
49948;SDS011;35840;45.982;8.890;2022-12-18T09:47:02;6.18;;;3.08;;
49948;SDS011;35840;45.982;8.890;2022-12-18T09:49:42;4.40;;;3.22;;
49948;SDS011;35840;45.982;8.890;2022-12-18T09:54:42;6.40;;;3.53;;
49948;SDS011;35840;45.982;8.890;2022-12-18T09:57:20;5.38;;;3.35;;
49948;SDS011;35840;45.982;8.890;2022-12-18T10:00:14;4.72;;;3.50;;
49948;SDS011;35840;45.982;8.890;2022-12-18T10:02:42;4.18;;;3.28;;
49948;SDS011;35840;45.982;8.890;2022-12-18T10:05:13;6.43;;;3.75;;
49948;SDS011;35840;45.982;8.890;2022-12-18T10:10:35;5.45;;;3.72;;
49948;SDS011;35840;45.982;8.890;2022-12-18T10:13:37;5.72;;;3.80;;
49948;SDS011;35840;45.982;8.890;2022-12-18T10:16:14;5.95;;;3.97;;
49948;SDS011;35840;45.982;8.890;2022-12-18T10:21:39;8.35;;;4.25;;
49948;SDS011;35840;45.982;8.890;2022-12-18T10:27:11;6.13;;;3.95;;
49948;SDS011;35840;45.982;8.890;2022-12-18T10:29:42;6.32;;;3.58;;
49948;SDS011;35840;45.982;8.890;2022-12-18T10:32:17;5.05;;;3.47;;
49948;SDS011;35840;45.982;8.890;2022-12-18T10:34:56;5.25;;;3.95;;
49948;SDS011;35840;45.982;8.890;2022-12-18T10:37:27;6.22;;;4.65;;
49948;SDS011;35840;45.982;8.890;2022-12-18T10:40:09;8.38;;;4.93;;
49948;SDS011;35840;45.982;8.890;2022-12-18T10:42:49;6.28;;;4.10;;
49948;SDS011;35840;45.982;8.890;2022-12-18T10:45:30;5.70;;;4.07;;
49948;SDS011;35840;45.982;8.890;2022-12-18T10:47:59;5.57;;;3.72;;
49948;SDS011;35840;45.982;8.890;2022-12-18T10:50:28;6.00;;;3.70;;
49948;SDS011;35840;45.982;8.890;2022-12-18T10:53:20;5.07;;;3.30;;
49948;SDS011;35840;45.982;8.890;2022-12-18T10:55:51;6.50;;;4.13;;
49948;SDS011;35840;45.982;8.890;2022-12-18T10:58:25;6.75;;;3.90;;
49948;SDS011;35840;45.982;8.890;2022-12-18T11:01:13;6.28;;;3.80;;
49948;SDS011;35840;45.982;8.890;2022-12-18T11:06:27;6.00;;;3.90;;
49948;SDS011;35840;45.982;8.890;2022-12-18T11:09:18;6.28;;;4.22;;
49948;SDS011;35840;45.982;8.890;2022-12-18T11:11:53;8.20;;;4.20;;
49948;SDS011;35840;45.982;8.890;2022-12-18T11:14:23;8.57;;;4.60;;
49948;SDS011;35840;45.982;8.890;2022-12-18T11:16:52;5.07;;;3.50;;
49948;SDS011;35840;45.982;8.890;2022-12-18T11:19:41;5.95;;;4.35;;
49948;SDS011;35840;45.982;8.890;2022-12-18T11:22:19;4.18;;;3.50;;
49948;SDS011;35840;45.982;8.890;2022-12-18T11:25:00;7.57;;;4.10;;
49948;SDS011;35840;45.982;8.890;2022-12-18T11:28:04;6.28;;;3.75;;
49948;SDS011;35840;45.982;8.890;2022-12-18T11:31:16;5.57;;;3.88;;
49948;SDS011;35840;45.982;8.890;2022-12-18T11:36:51;6.40;;;4.78;;
49948;SDS011;35840;45.982;8.890;2022-12-18T11:39:20;6.43;;;3.90;;
49948;SDS011;35840;45.982;8.890;2022-12-18T11:42:01;6.10;;;3.78;;
49948;SDS011;35840;45.982;8.890;2022-12-18T11:50:00;11.73;;;3.63;;
49948;SDS011;35840;45.982;8.890;2022-12-18T11:52:31;3.85;;;3.28;;
49948;SDS011;35840;45.982;8.890;2022-12-18T11:55:10;4.88;;;3.10;;
49948;SDS011;35840;45.982;8.890;2022-12-18T11:57:41;3.53;;;2.72;;
49948;SDS011;35840;45.982;8.890;2022-12-18T12:00:20;5.75;;;2.90;;
49948;SDS011;35840;45.982;8.890;2022-12-18T12:03:06;3.70;;;2.90;;
49948;SDS011;35840;45.982;8.890;2022-12-18T12:06:21;6.50;;;3.33;;
49948;SDS011;35840;45.982;8.890;2022-12-18T12:28:11;7.00;;;3.08;;
49948;SDS011;35840;45.982;8.890;2022-12-18T12:33:51;4.85;;;3.83;;
49948;SDS011;35840;45.982;8.890;2022-12-18T12:39:13;4.82;;;3.50;;
49948;SDS011;35840;45.982;8.890;2022-12-18T12:41:44;3.72;;;2.83;;
49948;SDS011;35840;45.982;8.890;2022-12-18T12:44:38;6.43;;;3.55;;
49948;SDS011;35840;45.982;8.890;2022-12-18T12:47:29;4.13;;;3.03;;
49948;SDS011;35840;45.982;8.890;2022-12-18T12:50:01;4.15;;;2.92;;
49948;SDS011;35840;45.982;8.890;2022-12-18T12:52:34;4.30;;;2.50;;
49948;SDS011;35840;45.982;8.890;2022-12-18T12:55:05;3.70;;;2.70;;
49948;SDS011;35840;45.982;8.890;2022-12-18T13:00:41;5.45;;;2.63;;
49948;SDS011;35840;45.982;8.890;2022-12-18T13:03:19;5.28;;;3.70;;
49948;SDS011;35840;45.982;8.890;2022-12-18T13:06:09;5.05;;;3.45;;
49948;SDS011;35840;45.982;8.890;2022-12-18T13:08:57;5.07;;;2.97;;
49948;SDS011;35840;45.982;8.890;2022-12-18T13:11:30;5.13;;;3.28;;
49948;SDS011;35840;45.982;8.890;2022-12-18T13:14:34;5.22;;;3.20;;
49948;SDS011;35840;45.982;8.890;2022-12-18T13:22:35;4.25;;;3.10;;
49948;SDS011;35840;45.982;8.890;2022-12-18T13:25:03;3.08;;;2.55;;
49948;SDS011;35840;45.982;8.890;2022-12-18T13:28:01;4.47;;;3.33;;
49948;SDS011;35840;45.982;8.890;2022-12-18T13:35:41;6.93;;;3.67;;
49948;SDS011;35840;45.982;8.890;2022-12-18T13:38:35;7.20;;;4.03;;
49948;SDS011;35840;45.982;8.890;2022-12-18T13:43:46;4.80;;;3.30;;
49948;SDS011;35840;45.982;8.890;2022-12-18T13:46:45;4.25;;;2.78;;
49948;SDS011;35840;45.982;8.890;2022-12-18T13:51:41;3.75;;;2.70;;
49948;SDS011;35840;45.982;8.890;2022-12-18T13:56:50;4.40;;;2.90;;
49948;SDS011;35840;45.982;8.890;2022-12-18T13:59:24;3.75;;;2.80;;
49948;SDS011;35840;45.982;8.890;2022-12-18T14:01:56;4.43;;;3.50;;
49948;SDS011;35840;45.982;8.890;2022-12-18T14:04:28;6.38;;;2.80;;
49948;SDS011;35840;45.982;8.890;2022-12-18T14:07:00;3.72;;;3.30;;
49948;SDS011;35840;45.982;8.890;2022-12-18T14:09:35;4.18;;;3.05;;
49948;SDS011;35840;45.982;8.890;2022-12-18T14:12:05;4.32;;;3.10;;
49948;SDS011;35840;45.982;8.890;2022-12-18T14:14:59;3.80;;;3.30;;
49948;SDS011;35840;45.982;8.890;2022-12-18T14:17:26;5.20;;;2.83;;
49948;SDS011;35840;45.982;8.890;2022-12-18T14:19:53;4.55;;;3.28;;
49948;SDS011;35840;45.982;8.890;2022-12-18T14:22:21;5.18;;;3.33;;
49948;SDS011;35840;45.982;8.890;2022-12-18T14:27:43;3.53;;;2.63;;
49948;SDS011;35840;45.982;8.890;2022-12-18T14:33:09;6.32;;;3.13;;
49948;SDS011;35840;45.982;8.890;2022-12-18T14:35:37;5.45;;;2.97;;
49948;SDS011;35840;45.982;8.890;2022-12-18T14:38:28;3.53;;;2.47;;
49948;SDS011;35840;45.982;8.890;2022-12-18T14:41:04;4.40;;;2.88;;
49948;SDS011;35840;45.982;8.890;2022-12-18T14:43:33;5.53;;;2.67;;
49948;SDS011;35840;45.982;8.890;2022-12-18T14:46:01;4.05;;;2.75;;
49948;SDS011;35840;45.982;8.890;2022-12-18T14:51:20;4.70;;;2.70;;
49948;SDS011;35840;45.982;8.890;2022-12-18T14:53:56;6.07;;;2.72;;
49948;SDS011;35840;45.982;8.890;2022-12-18T14:56:31;4.53;;;2.45;;
49948;SDS011;35840;45.982;8.890;2022-12-18T14:59:12;4.90;;;3.08;;
49948;SDS011;35840;45.982;8.890;2022-12-18T15:01:46;4.25;;;3.20;;
49948;SDS011;35840;45.982;8.890;2022-12-18T15:04:34;4.95;;;3.20;;
49948;SDS011;35840;45.982;8.890;2022-12-18T15:07:08;4.28;;;3.25;;
49948;SDS011;35840;45.982;8.890;2022-12-18T15:09:44;10.15;;;3.97;;
49948;SDS011;35840;45.982;8.890;2022-12-18T15:12:36;6.65;;;3.38;;
49948;SDS011;35840;45.982;8.890;2022-12-18T15:23:18;6.00;;;3.85;;
49948;SDS011;35840;45.982;8.890;2022-12-18T15:25:46;6.78;;;3.13;;
49948;SDS011;35840;45.982;8.890;2022-12-18T15:28:21;4.43;;;2.97;;
49948;SDS011;35840;45.982;8.890;2022-12-18T15:33:44;10.18;;;4.40;;
49948;SDS011;35840;45.982;8.890;2022-12-18T15:36:29;6.22;;;3.72;;
49948;SDS011;35840;45.982;8.890;2022-12-18T15:38:57;6.55;;;3.78;;
49948;SDS011;35840;45.982;8.890;2022-12-18T15:41:31;6.32;;;3.75;;
49948;SDS011;35840;45.982;8.890;2022-12-18T15:44:03;6.22;;;3.88;;
49948;SDS011;35840;45.982;8.890;2022-12-18T15:46:48;7.18;;;4.38;;
49948;SDS011;35840;45.982;8.890;2022-12-18T15:49:14;7.22;;;4.63;;
49948;SDS011;35840;45.982;8.890;2022-12-18T15:51:41;7.82;;;5.75;;
49948;SDS011;35840;45.982;8.890;2022-12-18T15:54:11;12.57;;;7.22;;
49948;SDS011;35840;45.982;8.890;2022-12-18T15:56:40;15.82;;;8.85;;
49948;SDS011;35840;45.982;8.890;2022-12-18T15:59:25;21.30;;;10.17;;
49948;SDS011;35840;45.982;8.890;2022-12-18T16:01:52;11.80;;;7.18;;
49948;SDS011;35840;45.982;8.890;2022-12-18T16:04:20;8.60;;;4.25;;
49948;SDS011;35840;45.982;8.890;2022-12-18T16:06:48;3.85;;;2.97;;
49948;SDS011;35840;45.982;8.890;2022-12-18T16:09:36;7.00;;;3.65;;
49948;SDS011;35840;45.982;8.890;2022-12-18T16:12:03;5.32;;;3.40;;
49948;SDS011;35840;45.982;8.890;2022-12-18T16:14:30;8.32;;;4.43;;
49948;SDS011;35840;45.982;8.890;2022-12-18T16:16:59;8.05;;;4.15;;
49948;SDS011;35840;45.982;8.890;2022-12-18T16:19:27;7.55;;;3.70;;
49948;SDS011;35840;45.982;8.890;2022-12-18T16:21:56;5.03;;;3.25;;
49948;SDS011;35840;45.982;8.890;2022-12-18T16:24:28;5.72;;;3.67;;
49948;SDS011;35840;45.982;8.890;2022-12-18T16:26:56;5.47;;;4.10;;
49948;SDS011;35840;45.982;8.890;2022-12-18T16:29:26;7.50;;;4.20;;
49948;SDS011;35840;45.982;8.890;2022-12-18T16:31:54;6.55;;;5.25;;
49948;SDS011;35840;45.982;8.890;2022-12-18T16:34:27;5.40;;;3.38;;
49948;SDS011;35840;45.982;8.890;2022-12-18T16:37:02;6.95;;;3.92;;
49948;SDS011;35840;45.982;8.890;2022-12-18T16:39:32;7.10;;;4.43;;
49948;SDS011;35840;45.982;8.890;2022-12-18T16:42:01;5.32;;;3.50;;
49948;SDS011;35840;45.982;8.890;2022-12-18T16:44:32;5.72;;;3.05;;
49948;SDS011;35840;45.982;8.890;2022-12-18T16:46:59;5.35;;;3.95;;
49948;SDS011;35840;45.982;8.890;2022-12-18T16:49:28;4.78;;;3.80;;
49948;SDS011;35840;45.982;8.890;2022-12-18T16:51:56;7.78;;;4.18;;
49948;SDS011;35840;45.982;8.890;2022-12-18T16:54:23;5.78;;;4.20;;
49948;SDS011;35840;45.982;8.890;2022-12-18T16:56:50;7.90;;;4.78;;
49948;SDS011;35840;45.982;8.890;2022-12-18T16:59:17;7.30;;;5.18;;
49948;SDS011;35840;45.982;8.890;2022-12-18T17:01:45;14.80;;;8.43;;
49948;SDS011;35840;45.982;8.890;2022-12-18T17:04:13;10.20;;;5.75;;
49948;SDS011;35840;45.982;8.890;2022-12-18T17:06:41;6.95;;;4.15;;
49948;SDS011;35840;45.982;8.890;2022-12-18T17:09:10;10.98;;;4.85;;
49948;SDS011;35840;45.982;8.890;2022-12-18T17:11:40;8.77;;;5.22;;